Weather History for KCCY - December, 2014

Change the Weather History Date:

Tuesday, December 23, 2014

  Actual Average Record
Temperature  
Mean Temperature 34 °F -  
Max Temperature 35 °F 25 °F 46 °F (1965)
Min Temperature 33 °F 10 °F -23 °F (1990)
Degree Days  
Heating Degree Days 31    
Moisture  
Dew Point 34 °F    
Average Humidity 100    
Maximum Humidity 100    
Minimum Humidity 100    
Precipitation  
Precipitation 0.37 in - - ()
Sea Level Pressure  
Sea Level Pressure 29.62 in    
Wind  
Wind Speed 10 mph (North)    
Max Wind Speed 16 mph    
Max Gust Speed 18 mph    
Visibility 5 miles    
Events Fog , Rain , Snow    
Averages and records for this station are not official NWS values.
T = Trace of Precipitation, MM = Missing Value Source: NWS Daily Summary

Daily Weather History Graph

Daily Weather History Graph

Search for Another Location

Airport or City:

Trip Planner

Search our weather history database for the weather conditions in past years. The results will help you decide how hot, cold, wet, or windy it might be!

Date:

Astronomy

Dec. 23, 2014 Rise Set
Actual Time 7:39 AM CST 4:39 PM CST
Civil Twilight 7:07 AM CST 5:12 PM CST
Nautical Twilight 6:31 AM CST 5:47 PM CST
Astronomical Twilight 5:56 AM CST 6:22 PM CST
Moon 8:41 AM CST (12/23) 6:58 PM CST (12/23)
Length of Visible Light 10h 04m
Length of Day
8h 59m
Waxing Crescent, 4% of the Moon is Illuminated
Dec 23
Waxing Crescent
Dec 28
First Quarter
Jan 4
Full
Jan 13
Last Quarter
Jan 20
New

Hourly Weather History & Observations

Time (CST) Temp. Windchill Dew Point Humidity Pressure Visibility Wind Dir Wind Speed Gust Speed Precip Events Conditions
12:15 AM 33.8 °F 25.3 °F 33.8 °F 100% 29.50 in 0.5 mi ENE 11.5 mph - N/A Fog Fog
12:35 AM 33.8 °F 25.3 °F 33.8 °F 100% 29.50 in 0.8 mi ENE 11.5 mph - N/A   Overcast
12:55 AM 33.8 °F 24.8 °F 33.8 °F 100% 29.49 in 1.5 mi ENE 12.7 mph - N/A   Overcast
1:15 AM 35.6 °F 26.6 °F 35.6 °F 100% 29.48 in 2.0 mi ENE 13.8 mph - N/A   Overcast
1:35 AM 35.6 °F 27.5 °F 35.6 °F 100% 29.48 in 3.0 mi ENE 11.5 mph 18.4 mph N/A Rain Light Rain
1:55 AM 35.6 °F 25.9 °F 35.6 °F 100% 29.48 in 3.0 mi NE 16.1 mph - 0.02 in Rain Light Rain
2:15 AM 35.6 °F 27.1 °F 35.6 °F 100% 29.48 in 3.0 mi NE 12.7 mph - N/A Rain Light Rain
2:35 AM 35.6 °F 27.5 °F 35.6 °F 100% 29.48 in 3.0 mi NE 11.5 mph - N/A Rain Light Rain
2:55 AM 35.6 °F 27.1 °F 35.6 °F 100% 29.49 in 4.0 mi NE 12.7 mph - 0.05 in Rain Light Rain
3:15 AM 35.6 °F 28.0 °F 35.6 °F 100% 29.49 in 4.0 mi NE 10.4 mph - N/A Rain Light Rain
3:35 AM 33.8 °F 26.4 °F 33.8 °F 100% 29.49 in 4.0 mi NE 9.2 mph - N/A Rain Light Rain
3:55 AM 33.8 °F 27.7 °F 33.8 °F 100% 29.49 in 2.5 mi NE 6.9 mph - 0.07 in Snow Light Snow
4:15 AM 33.8 °F 27.0 °F 33.8 °F 100% 29.49 in 1.2 mi NE 8.1 mph - N/A Snow Light Snow
4:35 AM 33.8 °F 27.7 °F 33.8 °F 100% 29.49 in 0.8 mi NNE 6.9 mph - N/A Snow Light Snow
4:55 AM 33.8 °F 27.0 °F 33.8 °F 100% 29.49 in 1.2 mi NNE 8.1 mph - 0.05 in Snow Light Snow
5:15 AM 33.8 °F 27.0 °F 33.8 °F 100% 29.49 in 1.8 mi NNE 8.1 mph - N/A Snow Light Snow
5:35 AM 33.8 °F 27.0 °F 33.8 °F 100% 29.49 in 1.8 mi NNE 8.1 mph - N/A Snow Light Snow
5:55 AM 33.8 °F 27.0 °F 33.8 °F 100% 29.50 in 1.2 mi North 8.1 mph - 0.05 in Snow Light Snow
6:15 AM 33.8 °F 27.0 °F 33.8 °F 100% 29.51 in 1.2 mi NNE 8.1 mph - N/A Snow Light Snow
6:35 AM 33.8 °F 27.0 °F 33.8 °F 100% 29.51 in 1.2 mi North 8.1 mph - N/A Snow Light Snow
6:55 AM 33.8 °F 27.0 °F 33.8 °F 100% 29.52 in 1.2 mi North 8.1 mph - 0.03 in Snow Light Snow
7:15 AM 33.8 °F 26.4 °F 33.8 °F 100% 29.52 in 1.8 mi North 9.2 mph - N/A Snow Light Snow
7:35 AM 33.8 °F 26.4 °F 33.8 °F 100% 29.53 in 1.8 mi North 9.2 mph - N/A Snow Light Snow
7:55 AM 33.8 °F 26.4 °F 33.8 °F 100% 29.53 in 2.5 mi North 9.2 mph - 0.01 in Rain Light Rain
8:15 AM 33.8 °F 26.4 °F 33.8 °F 100% 29.54 in 2.5 mi North 9.2 mph - N/A Rain Light Rain
8:35 AM 33.8 °F 27.0 °F 33.8 °F 100% 29.55 in 1.2 mi North 8.1 mph - N/A Snow Light Snow
8:55 AM 33.8 °F 27.0 °F 33.8 °F 100% 29.56 in 1.2 mi North 8.1 mph - 0.02 in Snow Light Snow
9:15 AM 33.8 °F 27.0 °F 33.8 °F 100% 29.57 in 2.5 mi North 8.1 mph - N/A Snow Light Snow
9:35 AM 33.8 °F 27.0 °F 33.8 °F 100% 29.58 in 3.0 mi North 8.1 mph - N/A Snow Light Snow
9:55 AM 33.8 °F 27.0 °F 33.8 °F 100% 29.59 in 4.0 mi NNW 8.1 mph - 0.04 in   Mostly Cloudy
10:15 AM 33.8 °F 27.0 °F 33.8 °F 100% 29.60 in 7.0 mi NNW 8.1 mph - N/A   Overcast
10:35 AM 33.8 °F 26.4 °F 33.8 °F 100% 29.60 in 5.0 mi NNW 9.2 mph - N/A   Overcast
10:55 AM 33.8 °F 27.0 °F 33.8 °F 100% 29.61 in 6.0 mi NNW 8.1 mph - 0.01 in   Mostly Cloudy
11:15 AM 33.8 °F 25.8 °F 33.8 °F 100% 29.61 in 8.0 mi North 10.4 mph - N/A   Mostly Cloudy
11:35 AM 33.8 °F 25.3 °F 33.8 °F 100% 29.62 in 10.0 mi NNW 11.5 mph - N/A   Overcast
11:55 AM 33.8 °F 24.8 °F 33.8 °F 100% 29.62 in 10.0 mi North 12.7 mph - N/A   Overcast
12:15 PM 33.8 °F 26.4 °F 33.8 °F 100% 29.63 in 9.0 mi NNW 9.2 mph - N/A   Overcast
12:35 PM 33.8 °F 25.3 °F 33.8 °F 100% 29.63 in 7.0 mi NNW 11.5 mph - N/A   Overcast
12:55 PM 33.8 °F 27.0 °F 33.8 °F 100% 29.64 in 3.0 mi NNW 8.1 mph - N/A Snow Light Snow
1:15 PM 33.8 °F 27.0 °F 33.8 °F 100% 29.64 in 2.0 mi NNW 8.1 mph - N/A Snow Light Snow
1:35 PM 33.8 °F 27.0 °F 33.8 °F 100% 29.65 in 3.0 mi NNW 8.1 mph - N/A Snow Light Snow
1:55 PM 33.8 °F 27.7 °F 33.8 °F 100% 29.65 in 2.0 mi NNW 6.9 mph - 0.01 in Snow Light Snow
2:15 PM 33.8 °F 27.7 °F 33.8 °F 100% 29.66 in 4.0 mi NNW 6.9 mph - N/A Snow Light Snow
2:35 PM 33.8 °F 26.4 °F 33.8 °F 100% 29.67 in 3.0 mi NNW 9.2 mph - N/A Snow Light Snow
2:55 PM 33.8 °F 27.0 °F 33.8 °F 100% 29.67 in 2.0 mi NNW 8.1 mph - N/A Snow Light Snow
3:15 PM 33.8 °F 27.7 °F 33.8 °F 100% 29.68 in 1.8 mi NNW 6.9 mph - N/A Snow Light Snow
3:35 PM 33.8 °F 27.7 °F 33.8 °F 100% 29.69 in 1.8 mi NNW 6.9 mph - N/A Snow Light Snow
3:55 PM 33.8 °F 26.4 °F 33.8 °F 100% 29.68 in 1.8 mi NNW 9.2 mph - 0.01 in Snow Light Snow
4:15 PM 33.8 °F 27.0 °F 33.8 °F 100% 29.69 in 4.0 mi NNW 8.1 mph - N/A Snow Light Snow
4:40 PM 33.8 °F 27.7 °F 33.8 °F 100% 29.71 in 3.0 mi NW 6.9 mph - N/A Snow Light Snow
4:55 PM 33.8 °F 27.0 °F 33.8 °F 100% 29.72 in 3.0 mi NW 8.1 mph - N/A Snow Light Snow
5:15 PM 33.8 °F 28.6 °F 33.8 °F 100% 29.73 in 7.0 mi NW 5.8 mph - N/A   Overcast
5:35 PM 33.8 °F 27.7 °F 33.8 °F 100% 29.72 in 6.0 mi NNW 6.9 mph - N/A   Overcast
5:55 PM 33.8 °F 25.3 °F 33.8 °F 100% 29.72 in 3.0 mi NNW 11.5 mph - N/A   Overcast
6:15 PM 33.8 °F 25.8 °F 33.8 °F 100% 29.72 in 3.0 mi NNW 10.4 mph - N/A   Overcast
6:35 PM 33.8 °F 25.8 °F 33.8 °F 100% 29.73 in 5.0 mi NNW 10.4 mph - N/A   Overcast
6:55 PM 33.8 °F 27.7 °F 33.8 °F 100% 29.75 in 9.0 mi NNW 6.9 mph - N/A   Overcast
7:15 PM 33.8 °F 27.0 °F 33.8 °F 100% 29.75 in 10.0 mi North 8.1 mph - N/A   Overcast
7:35 PM 33.8 °F 27.0 °F 33.8 °F 100% 29.75 in - NNW 8.1 mph - N/A   Overcast
7:55 PM 33.8 °F 25.8 °F 33.8 °F 100% 29.75 in 10.0 mi NNW 10.4 mph - N/A   Overcast
8:15 PM 33.8 °F 26.4 °F 33.8 °F 100% 29.77 in 10.0 mi NNW 9.2 mph - N/A   Overcast
8:35 PM 33.8 °F 25.8 °F 33.8 °F 100% 29.76 in 10.0 mi NNW 10.4 mph - N/A   Overcast
8:55 PM 33.8 °F 25.8 °F 33.8 °F 100% 29.77 in 10.0 mi NNW 10.4 mph - N/A   Overcast
9:15 PM 33.8 °F 26.4 °F 33.8 °F 100% 29.77 in 10.0 mi NNW 9.2 mph - N/A   Overcast
9:35 PM 33.8 °F 25.3 °F 33.8 °F 100% 29.77 in 10.0 mi NNW 11.5 mph - N/A   Overcast
9:55 PM 33.8 °F 27.0 °F 33.8 °F 100% 29.78 in 10.0 mi NNW 8.1 mph - N/A   Overcast
10:15 PM 33.8 °F 26.4 °F 33.8 °F 100% 29.79 in 10.0 mi NNW 9.2 mph - N/A   Overcast
10:35 PM 33.8 °F 27.0 °F 33.8 °F 100% 29.79 in 10.0 mi NNW 8.1 mph - N/A   Overcast
10:55 PM 33.8 °F 27.0 °F 33.8 °F 100% 29.78 in 10.0 mi NNW 8.1 mph - N/A   Overcast
11:15 PM 33.8 °F 25.8 °F 33.8 °F 100% 29.79 in 10.0 mi North 10.4 mph - N/A   Overcast
11:35 PM 33.8 °F 24.8 °F 33.8 °F 100% 29.79 in 10.0 mi North 12.7 mph - N/A   Overcast
11:55 PM 33.8 °F 25.3 °F 33.8 °F 100% 29.78 in 10.0 mi North 11.5 mph - N/A   Overcast